Time;durP1;ratioP1;P1;durP2;ratioP2;P2;SDS_P1;SDS_P2;PMS_P1;PMS_P2;Temp;Humidity;BMP_temperature;BMP_pressure;BME280_temperature;BME280_humidity;BME280_pressure;Samples;Min_cycle;Max_cycle;Signal;HPM_P1;HPM_P2
2021/12/12 00:01:22;;;;;;;74.20;51.17;;;18.40;60.50;;;;;;4931417;28;90483;-73
2021/12/12 00:03:52;;;;;;;72.32;50.97;;;18.40;60.30;;;;;;4936275;28;91664;-72
2021/12/12 00:06:23;;;;;;;71.07;51.28;;;18.40;60.30;;;;;;4932320;28;90566;-72
2021/12/12 00:08:55;;;;;;;72.53;51.30;;;18.40;60.10;;;;;;4931098;28;90657;-73
2021/12/12 00:11:24;;;;;;;72.78;51.38;;;18.40;60.30;;;;;;4945742;28;91138;-72
2021/12/12 00:13:55;;;;;;;76.15;51.22;;;18.40;60.30;;;;;;4933925;28;94099;-73
2021/12/12 00:16:21;;;;;;;69.47;50.67;;;18.30;60.20;;;;;;4929187;28;95109;-73
2021/12/12 00:18:47;;;;;;;71.72;51.13;;;18.30;60.20;;;;;;4936256;28;89774;-72
2021/12/12 00:21:16;;;;;;;72.38;50.88;;;18.30;60.00;;;;;;4938951;28;89878;-73
2021/12/12 00:23:42;;;;;;;70.80;50.95;;;18.30;60.30;;;;;;4926402;28;92625;-73
2021/12/12 00:26:08;;;;;;;71.88;51.13;;;18.30;60.20;;;;;;4945207;28;90212;-73
2021/12/12 00:28:35;;;;;;;72.20;50.83;;;18.20;60.10;;;;;;4932549;28;92964;-73
2021/12/12 00:31:09;;;;;;;72.15;51.15;;;18.20;59.90;;;;;;4931241;28;92948;-73
2021/12/12 00:33:42;;;;;;;71.15;51.25;;;18.20;60.20;;;;;;4936548;28;90877;-73
2021/12/12 00:36:23;;;;;;;64.75;46.67;;;18.20;60.20;;;;;;3365959;27;10113796;-72
2021/12/12 00:38:54;;;;;;;71.70;50.75;;;18.20;59.90;;;;;;2183132;28;10093325;-73
2021/12/12 00:41:25;;;;;;;;;;;18.20;60.00;;;;;;4935018;28;90938;-73
2021/12/12 00:43:51;;;;;;;70.43;50.47;;;18.20;60.00;;;;;;4935806;28;90471;-73
2021/12/12 00:46:18;;;;;;;72.40;51.08;;;18.10;60.00;;;;;;4933404;28;90159;-73
2021/12/12 00:48:45;;;;;;;72.57;51.03;;;18.10;60.00;;;;;;4931165;28;90852;-74
2021/12/12 00:51:15;;;;;;;73.53;51.08;;;18.10;59.90;;;;;;4931404;28;92629;-74
2021/12/12 00:53:43;;;;;;;72.30;50.83;;;18.10;59.90;;;;;;4934865;28;91425;-73
2021/12/12 00:56:09;;;;;;;72.00;50.92;;;18.10;59.90;;;;;;4929497;28;89865;-73
2021/12/12 00:58:34;;;;;;;71.07;50.50;;;18.10;59.80;;;;;;4930660;28;89465;-73
2021/12/12 01:01:06;;;;;;;70.38;50.95;;;18.10;60.00;;;;;;4927314;28;91409;-74
2021/12/12 01:03:38;;;;;;;70.65;50.92;;;18.10;60.00;;;;;;4936868;28;92191;-74
2021/12/12 01:06:07;;;;;;;70.28;50.40;;;18.00;59.90;;;;;;4938095;28;102447;-74
2021/12/12 01:08:33;;;;;;;71.30;51.10;;;18.00;60.00;;;;;;4930613;28;91148;-72
2021/12/12 01:11:11;;;;;;;71.10;50.75;;;18.00;59.70;;;;;;4936457;28;97451;-72
2021/12/12 01:13:38;;;;;;;72.65;50.90;;;18.00;59.90;;;;;;4942100;28;90689;-72
2021/12/12 01:16:19;;;;;;;70.10;50.75;;;18.00;59.90;;;;;;4925816;28;91397;-72
2021/12/12 01:18:50;;;;;;;69.78;50.65;;;18.00;60.00;;;;;;4940018;28;90847;-72
2021/12/12 01:21:20;;;;;;;71.25;50.75;;;18.00;59.80;;;;;;4934753;28;94630;-73
2021/12/12 01:24:00;;;;;;;72.53;50.70;;;18.00;59.90;;;;;;4931723;28;91272;-72
2021/12/12 01:26:28;;;;;;;69.57;50.42;;;18.00;59.80;;;;;;4931619;28;91595;-73
2021/12/12 01:28:57;;;;;;;71.43;51.00;;;17.90;59.80;;;;;;4929084;28;93087;-73
2021/12/12 01:31:28;;;;;;;70.00;50.60;;;17.90;59.70;;;;;;4936227;28;91063;-73
2021/12/12 01:34:00;;;;;;;73.35;51.08;;;17.90;59.80;;;;;;4936728;28;93867;-72
2021/12/12 01:36:43;;;;;;;71.45;50.80;;;17.90;59.80;;;;;;4942411;28;89735;-72
2021/12/12 01:39:11;;;;;;;74.20;50.88;;;17.90;59.70;;;;;;4923026;28;93574;-72
2021/12/12 01:41:52;;;;;;;70.57;50.65;;;17.90;59.70;;;;;;4928142;28;93279;-73
2021/12/12 01:44:25;;;;;;;71.30;50.80;;;17.90;59.80;;;;;;4937284;28;91887;-72
2021/12/12 01:47:00;;;;;;;69.20;50.55;;;17.90;59.80;;;;;;4927030;28;90200;-73
2021/12/12 01:49:28;;;;;;;70.40;50.25;;;17.80;59.60;;;;;;4935706;28;96749;-73
2021/12/12 01:51:54;;;;;;;70.38;50.60;;;17.80;59.90;;;;;;4929784;28;95190;-73
2021/12/12 01:54:26;;;;;;;70.25;50.70;;;17.80;59.80;;;;;;4927577;28;93060;-72
2021/12/12 01:56:58;;;;;;;71.88;50.85;;;17.80;59.70;;;;;;4942655;28;89855;-73
2021/12/12 01:59:31;;;;;;;72.28;51.13;;;17.80;59.70;;;;;;4923879;28;91509;-71
2021/12/12 02:02:11;;;;;;;70.50;50.75;;;17.80;59.60;;;;;;4933968;28;90975;-72
2021/12/12 02:04:46;;;;;;;71.68;50.42;;;17.80;59.70;;;;;;4932109;28;91613;-71
2021/12/12 02:07:16;;;;;;;71.47;50.53;;;17.80;59.70;;;;;;4932571;28;91218;-70
2021/12/12 02:09:43;;;;;;;70.13;51.13;;;17.80;59.70;;;;;;4937351;28;89686;-71
2021/12/12 02:12:09;;;;;;;69.72;50.78;;;17.80;59.50;;;;;;4936142;28;91341;-70
2021/12/12 02:14:40;;;;;;;69.68;51.00;;;17.80;59.70;;;;;;4927358;28;94908;-71
2021/12/12 02:17:19;;;;;;;70.88;50.55;;;17.80;59.60;;;;;;4934571;28;92671;-71
2021/12/12 02:20:16;;;;;;;70.10;50.63;;;17.70;59.70;;;;;;4935349;28;91626;-72
2021/12/12 02:36:18;;;;;;;70.93;50.80;;;17.70;59.50;;;;;;4931309;28;91875;-72
2021/12/12 02:38:45;;;;;;;69.53;50.55;;;17.70;59.60;;;;;;4932789;28;89952;-72
2021/12/12 02:41:14;;;;;;;69.63;50.45;;;17.70;59.70;;;;;;4915079;28;92964;-71
2021/12/12 02:43:45;;;;;;;70.38;50.65;;;17.70;59.60;;;;;;4933470;28;92395;-72
2021/12/12 02:46:14;;;;;;;72.43;51.03;;;17.70;59.50;;;;;;4933685;28;90992;-71
2021/12/12 02:48:42;;;;;;;69.68;50.42;;;17.70;59.50;;;;;;4936919;28;90349;-72
2021/12/12 02:51:12;;;;;;;69.50;50.35;;;17.60;59.60;;;;;;4917099;28;91377;-71
2021/12/12 02:53:47;;;;;;;70.55;50.60;;;17.60;59.60;;;;;;4938701;28;91881;-70
2021/12/12 02:56:20;;;;;;;70.25;50.80;;;17.60;59.60;;;;;;4917848;28;91444;-71
2021/12/12 02:58:47;;;;;;;70.70;50.58;;;17.60;59.70;;;;;;4930283;28;90856;-71
2021/12/12 03:01:18;;;;;;;69.57;50.67;;;17.60;59.50;;;;;;4925502;28;91511;-73
2021/12/12 03:03:46;;;;;;;70.28;50.58;;;17.70;59.70;;;;;;4933791;28;92827;-72
2021/12/12 03:06:16;;;;;;;70.60;50.35;;;17.60;59.60;;;;;;4924323;28;90329;-72
2021/12/12 03:08:44;;;;;;;69.35;50.65;;;17.60;59.50;;;;;;4921542;28;91811;-72
2021/12/12 03:11:10;;;;;;;69.15;50.35;;;17.60;59.60;;;;;;4926288;28;91451;-72
2021/12/12 03:13:37;;;;;;;69.68;50.35;;;17.60;59.70;;;;;;4929054;28;92414;-72
2021/12/12 03:16:03;;;;;;;69.22;50.42;;;17.60;59.60;;;;;;4933919;28;92235;-72
2021/12/12 03:18:32;;;;;;;69.80;50.30;;;17.60;59.50;;;;;;4931228;28;91860;-72
2021/12/12 03:21:03;;;;;;;69.85;50.60;;;17.60;59.50;;;;;;4926511;28;90245;-72
2021/12/12 03:23:33;;;;;;;69.50;50.33;;;17.60;59.50;;;;;;4932072;28;91565;-72
2021/12/12 03:26:06;;;;;;;69.07;50.25;;;17.60;59.50;;;;;;4922084;28;91565;-73
2021/12/12 03:28:42;;;;;;;69.40;49.83;;;17.60;59.50;;;;;;4927991;28;89845;-71
2021/12/12 03:31:15;;;;;;;68.25;50.05;;;17.60;59.50;;;;;;4929243;28;90309;-71
2021/12/12 03:33:41;;;;;;;69.78;50.38;;;17.50;59.50;;;;;;4920410;28;93479;-70
2021/12/12 03:36:09;;;;;;;69.43;50.28;;;17.60;59.40;;;;;;4926292;28;93431;-71
2021/12/12 03:38:45;;;;;;;68.97;50.38;;;17.50;59.40;;;;;;4919621;28;90389;-71
2021/12/12 03:41:16;;;;;;;69.15;50.45;;;17.60;59.20;;;;;;4926232;28;92317;-69
2021/12/12 03:43:42;;;;;;;68.55;50.10;;;17.60;59.40;;;;;;4929301;28;92182;-71
2021/12/12 03:46:10;;;;;;;69.95;50.33;;;17.50;59.40;;;;;;4929236;28;91691;-71
2021/12/12 03:48:40;;;;;;;69.05;50.10;;;17.60;59.50;;;;;;4934554;28;89985;-71
2021/12/12 03:51:10;;;;;;;68.78;50.38;;;17.50;59.40;;;;;;4939218;28;90214;-71
2021/12/12 03:53:38;;;;;;;69.32;50.28;;;17.50;59.30;;;;;;4939575;28;90998;-72
2021/12/12 03:56:06;;;;;;;69.43;50.28;;;17.50;59.40;;;;;;4935662;28;92841;-72
2021/12/12 03:58:32;;;;;;;69.88;50.47;;;17.50;59.50;;;;;;4936044;28;90458;-70
2021/12/12 04:01:13;;;;;;;68.93;50.17;;;17.50;59.60;;;;;;4935650;28;91234;-71
2021/12/12 04:03:40;;;;;;;68.80;50.08;;;17.50;59.40;;;;;;4939758;28;90433;-72
2021/12/12 04:06:08;;;;;;;68.35;50.05;;;17.50;59.50;;;;;;4928910;28;90695;-70
2021/12/12 04:08:44;;;;;;;68.10;49.90;;;17.50;59.40;;;;;;4934750;28;91844;-72
2021/12/12 04:11:30;;;;;;;68.13;50.13;;;17.50;59.50;;;;;;4951117;28;90306;-71
2021/12/12 04:13:57;;;;;;;69.00;50.35;;;17.50;59.40;;;;;;4940512;28;91481;-71
2021/12/12 04:16:26;;;;;;;69.97;50.25;;;17.50;59.50;;;;;;4935805;28;91289;-71
2021/12/12 04:18:51;;;;;;;70.40;49.97;;;17.50;59.40;;;;;;4941115;28;90910;-71
2021/12/12 04:21:19;;;;;;;68.47;50.03;;;17.50;59.40;;;;;;4938819;28;91393;-72
2021/12/12 04:23:45;;;;;;;68.43;49.95;;;17.50;59.40;;;;;;4938846;28;95352;-72
2021/12/12 04:26:23;;;;;;;68.60;50.30;;;17.50;59.40;;;;;;4931920;28;92182;-72
2021/12/12 04:29:28;;;;;;;68.07;49.92;;;17.50;59.30;;;;;;4929327;28;91432;-72
2021/12/12 04:31:59;;;;;;;67.55;49.92;;;17.50;59.30;;;;;;4914761;28;90755;-71
2021/12/12 04:34:28;;;;;;;68.20;50.17;;;17.50;59.30;;;;;;4934290;28;92653;-71
2021/12/12 04:36:55;;;;;;;69.30;50.08;;;17.50;59.30;;;;;;4940220;28;90758;-71
2021/12/12 04:39:29;;;;;;;69.07;50.08;;;17.50;59.40;;;;;;4924022;28;91087;-71
2021/12/12 04:42:00;;;;;;;68.60;50.20;;;17.50;59.40;;;;;;4935706;28;89491;-71
2021/12/12 04:44:30;;;;;;;68.40;50.20;;;17.50;59.20;;;;;;4932517;28;89868;-71
2021/12/12 04:49:56;;;;;;;68.03;50.15;;;17.50;59.10;;;;;;4943404;28;92475;-71
2021/12/12 04:52:39;;;;;;;70.25;50.05;;;17.50;59.20;;;;;;4934283;28;90008;-71
2021/12/12 04:55:15;;;;;;;68.15;50.08;;;17.50;59.10;;;;;;4926019;28;95123;-71
2021/12/12 04:58:04;;;;;;;68.70;50.03;;;17.40;59.20;;;;;;4938501;28;91341;-72
2021/12/12 05:00:36;;;;;;;68.88;49.92;;;17.40;59.30;;;;;;4935251;28;89779;-72
2021/12/12 05:03:07;;;;;;;68.05;49.92;;;17.50;59.20;;;;;;4931830;28;94762;-72
2021/12/12 05:05:41;;;;;;;68.85;50.15;;;17.40;59.20;;;;;;4929298;28;91603;-72
2021/12/12 05:08:35;;;;;;;69.18;50.13;;;17.40;59.20;;;;;;4930351;28;89392;-72
2021/12/12 05:11:13;;;;;;;68.30;50.08;;;17.40;59.10;;;;;;4942635;28;92808;-71
2021/12/12 05:13:49;;;;;;;67.57;49.95;;;17.40;59.10;;;;;;4935198;28;92771;-72
2021/12/12 05:16:22;;;;;;;71.32;50.15;;;17.40;59.10;;;;;;4938113;28;91769;-73
2021/12/12 05:18:51;;;;;;;67.97;49.95;;;17.50;59.30;;;;;;4939090;28;91379;-72
2021/12/12 05:21:31;;;;;;;68.45;49.75;;;17.60;59.50;;;;;;4937147;28;89484;-71
2021/12/12 05:24:00;;;;;;;68.85;50.13;;;17.70;59.30;;;;;;4929197;28;91568;-71
2021/12/12 05:26:32;;;;;;;69.30;50.35;;;17.80;58.90;;;;;;4942131;28;91066;-72
2021/12/12 05:29:15;;;;;;;68.78;50.15;;;17.90;58.70;;;;;;4929973;28;89948;-72
2021/12/12 05:31:46;;;;;;;68.57;50.15;;;18.00;58.50;;;;;;4931366;28;93017;-71
2021/12/12 05:34:13;;;;;;;68.43;50.03;;;18.20;58.20;;;;;;4939277;28;89451;-71
2021/12/12 05:36:39;;;;;;;70.55;50.30;;;18.30;57.90;;;;;;4940992;28;94804;-71
2021/12/12 05:39:06;;;;;;;68.97;50.05;;;18.50;57.50;;;;;;4927268;28;91859;-72
2021/12/12 05:41:32;;;;;;;68.28;50.15;;;18.60;57.30;;;;;;4930882;28;91904;-72
2021/12/12 05:43:59;;;;;;;68.47;50.40;;;18.70;56.80;;;;;;4934987;28;91497;-72
2021/12/12 05:46:25;;;;;;;70.03;50.42;;;18.80;56.60;;;;;;4920172;28;90803;-71
2021/12/12 05:48:53;;;;;;;67.95;50.05;;;18.90;56.30;;;;;;4936195;28;91293;-70
2021/12/12 05:51:20;;;;;;;68.22;49.88;;;19.00;56.00;;;;;;4940408;28;89576;-71
2021/12/12 05:53:50;;;;;;;69.03;49.92;;;19.10;55.90;;;;;;4936002;28;89899;-72
2021/12/12 05:56:17;;;;;;;68.65;50.30;;;19.20;55.70;;;;;;4928762;28;92093;-71
2021/12/12 05:58:43;;;;;;;70.93;50.10;;;19.30;55.50;;;;;;4927839;28;91855;-72
2021/12/12 06:01:11;;;;;;;69.55;50.05;;;19.30;55.40;;;;;;4931330;28;91445;-70
2021/12/12 06:03:40;;;;;;;69.38;50.58;;;19.30;55.30;;;;;;4931989;28;92572;-71
2021/12/12 06:06:09;;;;;;;68.32;49.80;;;19.40;54.80;;;;;;4931360;28;91431;-72
2021/12/12 06:08:36;;;;;;;70.43;50.33;;;19.50;54.80;;;;;;4930044;28;94178;-71
2021/12/12 06:11:02;;;;;;;70.20;50.28;;;19.50;54.80;;;;;;4923561;28;90436;-71
2021/12/12 06:13:29;;;;;;;68.57;50.00;;;19.50;54.60;;;;;;4933487;28;90082;-72
2021/12/12 06:15:56;;;;;;;69.40;50.45;;;19.60;54.70;;;;;;4931394;28;94818;-71
2021/12/12 06:18:26;;;;;;;68.68;50.15;;;19.50;54.30;;;;;;4938174;28;89734;-71
2021/12/12 06:20:52;;;;;;;69.15;50.25;;;19.50;54.60;;;;;;4924867;28;92972;-71
2021/12/12 06:23:19;;;;;;;68.93;50.15;;;19.60;54.50;;;;;;4931550;28;91355;-70
2021/12/12 06:25:46;;;;;;;68.50;49.65;;;19.60;54.60;;;;;;4927964;28;92368;-72
2021/12/12 06:28:24;;;;;;;68.25;49.85;;;19.60;54.40;;;;;;4927723;28;94160;-71
2021/12/12 06:30:50;;;;;;;69.55;50.42;;;19.60;54.40;;;;;;4920827;28;91270;-72
2021/12/12 06:33:16;;;;;;;69.85;50.75;;;19.60;54.40;;;;;;4928542;28;92048;-71
2021/12/12 06:35:42;;;;;;;70.68;50.42;;;19.50;54.30;;;;;;4931587;28;93924;-72
2021/12/12 06:38:10;;;;;;;69.50;50.25;;;19.50;54.40;;;;;;4927617;28;90947;-72
2021/12/12 06:40:37;;;;;;;73.00;50.25;;;19.50;54.50;;;;;;4929835;28;92051;-71
2021/12/12 06:43:08;;;;;;;69.32;50.53;;;19.40;54.30;;;;;;4920799;28;90830;-72
2021/12/12 06:45:35;;;;;;;70.25;50.53;;;19.50;54.50;;;;;;4928430;28;90319;-71
2021/12/12 06:48:04;;;;;;;70.00;50.47;;;19.40;54.50;;;;;;4926509;28;93191;-72
2021/12/12 06:50:30;;;;;;;69.03;50.15;;;19.40;54.50;;;;;;4938427;28;94699;-73
2021/12/12 06:52:56;;;;;;;68.65;49.97;;;19.40;54.50;;;;;;4940970;28;93640;-72
2021/12/12 06:55:22;;;;;;;68.60;49.92;;;19.40;54.60;;;;;;4931249;28;94844;-71
2021/12/12 06:57:49;;;;;;;70.00;50.55;;;19.40;54.70;;;;;;4935799;28;91589;-72
2021/12/12 07:00:20;;;;;;;70.65;50.58;;;19.30;54.70;;;;;;4921529;28;90534;-72
2021/12/12 07:02:46;;;;;;;69.43;50.50;;;19.30;54.70;;;;;;4920072;28;92509;-72
2021/12/12 07:05:19;;;;;;;69.38;50.75;;;19.20;54.70;;;;;;4925383;28;91091;-74
2021/12/12 07:07:47;;;;;;;68.40;50.20;;;19.20;54.80;;;;;;4917727;28;96241;-74
2021/12/12 07:10:17;;;;;;;72.55;51.03;;;19.20;54.70;;;;;;4926781;28;92681;-73
2021/12/12 07:12:45;;;;;;;70.18;50.60;;;19.20;54.60;;;;;;4928797;28;96175;-74
2021/12/12 07:15:15;;;;;;;73.47;50.80;;;19.20;54.80;;;;;;4928853;28;90985;-74
2021/12/12 07:17:41;;;;;;;68.32;50.22;;;19.10;54.80;;;;;;4922912;28;89997;-75
2021/12/12 07:20:09;;;;;;;69.68;50.70;;;19.10;54.90;;;;;;4920088;28;99021;-75
2021/12/12 07:22:36;;;;;;;69.30;50.63;;;19.10;54.90;;;;;;4923841;28;90171;-73
2021/12/12 07:25:06;;;;;;;70.65;50.53;;;19.10;55.00;;;;;;4918122;28;95680;-73
2021/12/12 07:27:31;;;;;;;71.03;50.45;;;19.00;55.00;;;;;;4922014;28;90656;-73
2021/12/12 07:29:58;;;;;;;69.85;50.50;;;19.00;55.20;;;;;;4919738;28;90679;-74
2021/12/12 07:32:26;;;;;;;72.30;50.50;;;19.00;55.20;;;;;;4917590;28;91828;-74
2021/12/12 07:34:52;;;;;;;70.28;50.60;;;18.90;55.20;;;;;;4923894;28;91253;-74
2021/12/12 07:37:18;;;;;;;69.43;50.60;;;19.00;55.20;;;;;;4940404;28;93976;-74
2021/12/12 07:39:45;;;;;;;71.22;50.70;;;18.90;55.30;;;;;;4930335;28;90455;-73
2021/12/12 07:42:13;;;;;;;73.25;51.10;;;18.90;55.40;;;;;;4929764;28;90159;-74
2021/12/12 07:44:40;;;;;;;70.57;50.85;;;18.90;55.40;;;;;;4918186;28;93733;-72
2021/12/12 07:47:10;;;;;;;71.88;50.90;;;18.90;55.40;;;;;;4919206;28;93534;-71
2021/12/12 07:49:43;;;;;;;73.93;50.83;;;18.80;55.40;;;;;;4937415;28;94767;-73
2021/12/12 07:52:13;;;;;;;69.80;50.72;;;18.80;55.50;;;;;;4930965;28;90169;-72
2021/12/12 07:54:40;;;;;;;70.18;50.60;;;18.80;55.40;;;;;;4920865;28;98390;-72
2021/12/12 07:57:07;;;;;;;71.35;51.00;;;18.80;55.40;;;;;;4922819;28;92680;-74
2021/12/12 07:59:35;;;;;;;70.32;50.55;;;18.80;55.60;;;;;;4915520;28;91304;-73
2021/12/12 08:02:02;;;;;;;70.63;51.00;;;18.70;55.70;;;;;;4922584;28;89344;-74
2021/12/12 08:04:30;;;;;;;69.43;50.70;;;18.70;55.70;;;;;;4913681;28;91067;-73
2021/12/12 08:06:57;;;;;;;70.53;51.00;;;18.70;55.80;;;;;;4919148;28;91668;-74
2021/12/12 08:09:25;;;;;;;75.25;50.95;;;18.70;55.80;;;;;;4924394;28;94430;-73
2021/12/12 08:11:52;;;;;;;70.72;50.95;;;18.80;55.80;;;;;;4924040;28;90655;-74
2021/12/12 08:14:23;;;;;;;69.88;50.88;;;18.80;55.80;;;;;;4931106;28;92730;-73
2021/12/12 08:16:50;;;;;;;70.70;50.85;;;18.80;55.70;;;;;;4927466;28;91975;-74
2021/12/12 08:19:21;;;;;;;69.43;50.70;;;18.90;55.60;;;;;;4931835;28;90124;-73
2021/12/12 08:21:48;;;;;;;70.15;50.95;;;18.90;55.50;;;;;;4926416;28;90411;-73
2021/12/12 08:24:14;;;;;;;69.38;50.47;;;19.00;55.50;;;;;;4936565;28;90980;-73
2021/12/12 08:26:43;;;;;;;70.78;51.08;;;19.00;55.40;;;;;;4923298;28;91660;-74
2021/12/12 08:29:11;;;;;;;70.13;50.67;;;19.10;55.30;;;;;;4911097;28;90775;-73
2021/12/12 08:31:37;;;;;;;71.68;51.40;;;19.10;55.10;;;;;;4927035;28;89744;-74
2021/12/12 08:34:07;;;;;;;71.55;50.58;;;19.20;55.10;;;;;;4918415;28;92184;-74
2021/12/12 08:36:35;;;;;;;74.40;50.90;;;19.20;55.00;;;;;;4941594;28;90418;-74
2021/12/12 08:39:04;;;;;;;72.95;51.15;;;19.20;54.80;;;;;;4946397;28;89929;-75
2021/12/12 08:41:30;;;;;;;72.75;51.35;;;19.20;54.90;;;;;;4946405;28;89546;-73
2021/12/12 08:43:56;;;;;;;71.25;51.30;;;19.20;54.80;;;;;;4943306;28;91819;-72
2021/12/12 08:46:23;;;;;;;73.13;50.90;;;19.30;54.90;;;;;;4939418;28;90112;-74
2021/12/12 08:48:51;;;;;;;73.32;50.80;;;19.20;54.80;;;;;;4943563;28;90707;-73
2021/12/12 08:51:36;;;;;;;71.55;50.92;;;19.30;54.90;;;;;;4945852;28;89889;-73
2021/12/12 08:54:14;;;;;;;71.40;50.92;;;19.30;54.80;;;;;;4942216;28;92278;-72
2021/12/12 08:56:48;;;;;;;73.72;51.35;;;19.20;54.80;;;;;;4938876;28;95824;-73
2021/12/12 08:59:26;;;;;;;70.78;50.63;;;19.30;54.90;;;;;;4938970;28;91770;-74
2021/12/12 09:01:57;;;;;;;71.70;50.92;;;19.30;54.90;;;;;;4924660;28;90878;-72
2021/12/12 09:04:23;;;;;;;73.47;52.00;;;19.30;55.20;;;;;;4927436;28;90640;-74
2021/12/12 09:07:15;;;;;;;79.72;51.17;;;19.30;55.60;;;;;;4916324;28;91706;-73
2021/12/12 09:10:10;;;;;;;74.15;51.38;;;19.30;55.90;;;;;;4913755;28;93719;-73
2021/12/12 09:12:45;;;;;;;78.65;51.30;;;19.20;56.10;;;;;;4921409;28;92370;-73
2021/12/12 09:15:22;;;;;;;78.03;51.83;;;19.20;56.10;;;;;;4911198;28;94361;-73
2021/12/12 09:17:55;;;;;;;80.38;51.42;;;19.30;56.30;;;;;;4942845;28;92181;-72
2021/12/12 09:20:33;;;;;;;76.30;51.72;;;19.20;56.30;;;;;;4928360;28;90907;-74
2021/12/12 09:23:13;;;;;;;74.18;51.88;;;19.20;56.40;;;;;;4923974;28;92364;-73
2021/12/12 09:25:56;;;;;;;79.97;51.60;;;19.20;56.60;;;;;;4918427;28;92140;-73
2021/12/12 09:28:49;;;;;;;79.40;52.05;;;19.20;56.50;;;;;;4905091;28;90787;-73
2021/12/12 09:31:26;;;;;;;79.32;51.95;;;19.20;56.50;;;;;;4921176;28;90978;-73
2021/12/12 09:34:07;;;;;;;78.40;52.00;;;19.10;56.50;;;;;;4910589;28;90786;-73
2021/12/12 09:36:47;;;;;;;73.03;51.85;;;19.10;56.40;;;;;;4907151;28;92756;-73
2021/12/12 09:39:22;;;;;;;79.47;51.88;;;19.10;56.50;;;;;;4916231;28;90791;-73
2021/12/12 09:42:20;;;;;;;77.60;51.45;;;19.10;56.70;;;;;;4927405;28;91755;-73
2021/12/12 09:45:01;;;;;;;75.65;51.58;;;19.10;56.70;;;;;;4925730;28;90931;-73
2021/12/12 09:48:14;;;;;;;72.20;51.30;;;19.00;56.70;;;;;;4926154;28;91174;-73
2021/12/12 09:51:17;;;;;;;73.00;51.72;;;19.10;56.90;;;;;;4920258;28;96409;-73
2021/12/12 09:54:23;;;;;;;74.22;51.67;;;19.10;56.70;;;;;;4919436;28;91747;-73
2021/12/12 09:56:56;;;;;;;75.35;51.78;;;19.10;56.70;;;;;;4919074;28;90993;-73
2021/12/12 09:59:43;;;;;;;76.00;52.20;;;19.10;56.80;;;;;;4925561;28;91871;-74
2021/12/12 10:02:46;;;;;;;74.07;51.88;;;19.20;56.70;;;;;;4924971;28;90133;-73
2021/12/12 10:05:30;;;;;;;77.57;51.75;;;19.20;56.70;;;;;;4937956;28;90921;-74
2021/12/12 10:08:14;;;;;;;72.38;51.80;;;19.30;56.70;;;;;;4918646;28;90814;-73
2021/12/12 10:11:10;;;;;;;71.45;51.50;;;19.30;56.60;;;;;;4934950;28;91490;-72
2021/12/12 10:14:02;;;;;;;79.38;51.90;;;19.40;56.60;;;;;;4922372;28;93160;-73
2021/12/12 10:16:47;;;;;;;76.63;52.13;;;19.40;56.60;;;;;;4933215;28;90180;-74
2021/12/12 10:19:20;;;;;;;77.40;52.05;;;19.50;56.50;;;;;;4918368;28;91701;-73
2021/12/12 10:22:01;;;;;;;75.25;51.88;;;19.50;56.50;;;;;;4908157;28;92645;-73
2021/12/12 10:24:54;;;;;;;74.07;51.88;;;19.50;56.50;;;;;;4914590;28;97657;-73
2021/12/12 10:27:50;;;;;;;73.10;52.22;;;19.50;56.40;;;;;;4906568;28;93998;-72
2021/12/12 10:30:33;;;;;;;79.20;52.30;;;19.50;56.40;;;;;;4906667;28;92150;-73
2021/12/12 10:33:10;;;;;;;75.20;52.22;;;19.50;56.50;;;;;;4899915;28;93827;-73
2021/12/12 10:35:52;;;;;;;73.88;51.85;;;19.50;56.50;;;;;;4915202;28;91742;-73
2021/12/12 10:38:23;;;;;;;72.85;51.72;;;19.50;56.50;;;;;;4916536;28;91017;-73
2021/12/12 10:40:57;;;;;;;74.45;51.65;;;19.50;56.50;;;;;;4911572;28;91724;-73
2021/12/12 10:43:42;;;;;;;76.45;51.90;;;19.50;56.60;;;;;;4912738;28;90944;-73
2021/12/12 10:46:15;;;;;;;76.53;52.05;;;19.50;56.60;;;;;;4913254;28;90766;-74
2021/12/12 10:49:06;;;;;;;75.22;51.85;;;19.50;56.60;;;;;;4904660;28;93403;-73
2021/12/12 10:51:43;;;;;;;77.63;52.47;;;19.40;56.60;;;;;;4900971;28;94200;-73
2021/12/12 10:54:19;;;;;;;74.75;52.20;;;19.50;56.70;;;;;;4903543;28;93739;-74
2021/12/12 10:56:55;;;;;;;75.88;52.33;;;19.40;56.70;;;;;;4906694;28;91396;-74
2021/12/12 10:59:39;;;;;;;74.55;51.97;;;19.40;56.70;;;;;;4907338;28;91223;-74
2021/12/12 11:02:09;;;;;;;72.97;51.75;;;19.40;56.70;;;;;;4905630;28;90761;-74
2021/12/12 11:04:51;;;;;;;74.63;52.00;;;19.40;56.80;;;;;;4910946;28;90055;-74
2021/12/12 11:07:23;;;;;;;76.35;52.00;;;19.40;56.90;;;;;;4905304;28;94114;-74
2021/12/12 11:10:17;;;;;;;73.55;51.85;;;19.40;56.90;;;;;;4900610;28;91511;-74
2021/12/12 11:12:57;;;;;;;75.32;51.88;;;19.40;56.90;;;;;;4911196;28;90270;-73
2021/12/12 11:15:47;;;;;;;72.53;51.55;;;19.30;56.90;;;;;;4902810;28;92197;-73
2021/12/12 11:18:23;;;;;;;73.45;51.97;;;19.30;57.00;;;;;;4903980;28;92554;-73
2021/12/12 11:21:16;;;;;;;73.65;52.13;;;19.30;57.00;;;;;;4903589;28;92166;-73
2021/12/12 11:23:50;;;;;;;74.05;51.67;;;19.30;57.10;;;;;;4909454;28;91964;-73
2021/12/12 11:26:23;;;;;;;72.93;51.40;;;19.30;57.10;;;;;;4903214;28;91406;-73
2021/12/12 11:28:54;;;;;;;72.85;51.53;;;19.30;57.20;;;;;;4900057;28;93250;-73
2021/12/12 11:31:33;;;;;;;;;;;19.30;57.40;;;;;;4904826;28;90797;-73
2021/12/12 11:34:01;;;;;;;82.30;53.63;;;19.30;57.90;;;;;;4908015;28;90684;-73
2021/12/12 11:36:32;;;;;;;87.20;54.88;;;19.40;58.40;;;;;;4908985;28;90966;-74
2021/12/12 11:39:27;;;;;;;85.20;55.17;;;19.40;59.00;;;;;;4917615;28;91891;-74
2021/12/12 11:42:04;;;;;;;85.85;54.80;;;19.60;59.70;;;;;;4906848;28;96401;-73
2021/12/12 11:44:42;;;;;;;85.38;55.25;;;19.70;59.20;;;;;;4897686;28;95570;-73
2021/12/12 11:47:26;;;;;;;88.82;54.83;;;19.80;60.10;;;;;;4898091;28;91323;-74
2021/12/12 11:50:24;;;;;;;85.18;54.95;;;19.90;61.10;;;;;;4901857;28;91458;-74
2021/12/12 11:52:58;;;;;;;85.95;55.13;;;20.00;60.70;;;;;;4889510;28;91286;-74
2021/12/12 11:55:29;;;;;;;84.32;54.45;;;20.10;60.60;;;;;;4898879;28;91695;-74
2021/12/12 11:58:00;;;;;;;83.13;54.58;;;20.20;60.20;;;;;;4905055;28;92047;-74
2021/12/12 12:00:38;;;;;;;86.47;54.13;;;20.20;59.90;;;;;;4927664;28;92857;-74
2021/12/12 12:03:23;;;;;;;83.65;54.30;;;20.30;59.90;;;;;;4912846;28;90745;-73
2021/12/12 12:06:20;;;;;;;83.07;53.83;;;20.40;59.70;;;;;;4919421;28;90641;-73
2021/12/12 12:09:17;;;;;;;82.00;53.70;;;20.40;59.50;;;;;;4907722;28;92485;-74
2021/12/12 12:12:20;;;;;;;82.88;53.55;;;20.40;59.60;;;;;;4902412;28;93084;-74
2021/12/12 12:15:24;;;;;;;81.05;53.55;;;20.50;59.70;;;;;;4919962;28;91853;-73
2021/12/12 12:18:22;;;;;;;82.38;53.97;;;20.50;59.50;;;;;;4923300;28;91557;-74
2021/12/12 12:21:16;;;;;;;81.45;53.40;;;20.50;59.50;;;;;;4933534;28;90476;-74
2021/12/12 12:26:51;;;;;;;81.18;52.97;;;20.50;59.10;;;;;;4912415;28;92478;-72
2021/12/12 12:29:31;;;;;;;83.30;53.33;;;20.50;59.60;;;;;;4922236;28;89177;-73
2021/12/12 12:32:34;;;;;;;80.13;52.90;;;20.50;58.70;;;;;;4917971;28;91547;-73
2021/12/12 12:35:24;;;;;;;78.47;52.78;;;20.50;58.70;;;;;;4911956;28;91929;-74
2021/12/12 12:38:20;;;;;;;80.00;52.83;;;20.50;58.50;;;;;;4906572;28;92863;-73
2021/12/12 12:41:22;;;;;;;78.05;52.90;;;20.50;58.50;;;;;;4926604;28;90967;-72
2021/12/12 12:44:26;;;;;;;78.22;52.83;;;20.50;58.60;;;;;;4906204;28;92735;-73
2021/12/12 12:47:19;;;;;;;78.07;52.95;;;20.50;58.60;;;;;;4920221;28;91873;-73
2021/12/12 12:50:14;;;;;;;77.38;52.72;;;20.40;58.80;;;;;;4921384;28;91851;-72
2021/12/12 12:53:10;;;;;;;79.25;52.50;;;20.50;58.50;;;;;;4897892;28;91889;-72
2021/12/12 12:56:15;;;;;;;80.43;52.63;;;20.40;58.70;;;;;;4900500;28;91748;-72
2021/12/12 12:59:10;;;;;;;78.72;52.63;;;20.40;58.90;;;;;;4906802;28;91982;-72
2021/12/12 13:01:48;;;;;;;78.28;52.50;;;20.40;59.00;;;;;;4911494;28;91381;-73
2021/12/12 13:04:30;;;;;;;80.78;52.83;;;20.30;58.90;;;;;;4908173;28;91221;-73
2021/12/12 13:07:23;;;;;;;81.80;52.55;;;20.30;59.70;;;;;;4902013;28;92351;-72
2021/12/12 13:09:59;;;;;;;81.15;52.95;;;20.30;60.90;;;;;;4912343;28;91003;-73
2021/12/12 13:12:56;;;;;;;80.38;52.83;;;20.30;61.40;;;;;;4914738;28;91471;-73
2021/12/12 13:15:29;;;;;;;78.00;52.90;;;20.30;60.60;;;;;;4927423;28;91974;-72
2021/12/12 13:18:16;;;;;;;76.97;52.78;;;20.30;61.30;;;;;;4929933;28;93456;-74
2021/12/12 13:21:19;;;;;;;79.15;53.05;;;20.30;61.10;;;;;;4937443;28;91163;-74
2021/12/12 13:23:58;;;;;;;78.22;52.80;;;20.20;60.30;;;;;;4931586;28;90158;-74
2021/12/12 13:26:28;;;;;;;75.25;52.50;;;20.20;60.00;;;;;;4928649;28;94706;-74